Station Historical Data
Daily Summary for June 10, 2017 Units:  Metric    English   Both
« Previous Day
Next Day »
Daily Weekly Monthly Yearly Custom
  High: Low: Average:
Temperature: 30 °C 16.9 °C 23.2 °C
Dew Point: 18.3 °C 13.9 °C 16.1 °C
Humidity: 91% 39% 67%
Wind Speed: 1.6km/h 0km/h 0km/h
Wind Gust: 3.2km/h - -
Wind- - WNW
Pressure: 1020.5 hPa 1015.8 hPa -
Precipitation: 0 mm    
Historical Graphs
 
 
Tabular Data for June 10, 2017
Time Temperature Dew Point Pressure Wind Wind Speed Wind Gust Humidity Rainfall Rate (Hourly) Conditions
00:01 19.1 °C 15.6 °C 1016.1 hPa Calm     80% 0 mm SCT
00:10 18.9 °C 15.6 °C 1016.1 hPa Calm     81% 0 mm SCT
00:20 18.8 °C 15.7 °C 1016.1 hPa Calm     82% 0 mm SCT
00:31 18.8 °C 15.8 °C 1016.5 hPa Calm     83% 0 mm SCT
00:40 18.7 °C 15.7 °C 1016.5 hPa Calm     83% 0 mm SCT
00:50 18.6 °C 15.7 °C 1016.5 hPa Calm     83% 0 mm SCT
01:00 18.6 °C 15.8 °C 1016.5 hPa Calm     84% 0 mm SCT
01:10 18.5 °C 15.7 °C 1016.5 hPa Calm     84% 0 mm SCT
01:20 18.4 °C 15.9 °C 1016.1 hPa Calm     85% 0 mm SCT
01:30 18.4 °C 15.6 °C 1016.1 hPa Calm     84% 0 mm SCT
01:41 18.3 °C 15.8 °C 1016.1 hPa Calm     85% 0 mm SCT
01:50 18.3 °C 15.7 °C 1016.1 hPa Calm     85% 0 mm SCT
02:10 18.2 °C 15.8 °C 1016.1 hPa Calm     86% 0 mm SCT
02:20 18.1 °C 15.7 °C 1016.1 hPa Calm     86% 0 mm SCT
02:30 18 °C 15.6 °C 1016.1 hPa Calm     86% 0 mm SCT
02:40 17.8 °C 15.5 °C 1016.1 hPa Calm     86% 0 mm SCT
02:50 17.8 °C 15.4 °C 1016.1 hPa Calm     86% 0 mm SCT
03:00 17.7 °C 15.3 °C 1016.1 hPa Calm     86% 0 mm SCT
03:10 17.8 °C 15.6 °C 1016.1 hPa Calm     87% 0 mm SCT
03:20 17.8 °C 15.4 °C 1016.1 hPa Calm     86% 0 mm SCT
03:30 17.7 °C 15.5 °C 1015.8 hPa Calm     87% 0 mm SCT
03:40 17.6 °C 15.4 °C 1016.1 hPa Calm     87% 0 mm SCT
03:50 17.5 °C 15.3 °C 1016.1 hPa Calm     87% 0 mm SCT
04:01 16.9 °C 14.7 °C 1015.8 hPa Calm     87% 0 mm SCT
04:10 16.9 °C 14.7 °C 1016.1 hPa Calm     87% 0 mm SCT
04:20 16.9 °C 14.7 °C 1016.1 hPa Calm     87% 0 mm SCT
04:30 17.8 °C 15.6 °C 1016.1 hPa Calm     87% 0 mm SCT
04:40 16.9 °C 14.7 °C 1016.1 hPa Calm     87% 0 mm CLR
04:50 16.9 °C 14.7 °C 1016.1 hPa Calm     87% 0 mm CLR
05:01 16.9 °C 14.7 °C 1016.5 hPa Calm     87% 0 mm CLR
05:10 16.9 °C 14.7 °C 1016.5 hPa Calm     87% 0 mm CLR
05:20 16.9 °C 14.7 °C 1016.5 hPa Calm     87% 0 mm CLR
05:30 16.9 °C 14.7 °C 1016.5 hPa Calm     87% 0 mm CLR
05:40 16.9 °C 14.7 °C 1016.8 hPa Calm     87% 0 mm CLR
05:50 16.9 °C 14.7 °C 1016.8 hPa Calm     87% 0 mm CLR
06:00 16.9 °C 14.7 °C 1016.8 hPa Calm     87% 0 mm CLR
06:10 16.9 °C 14.7 °C 1017.2 hPa Calm     87% 0 mm CLR
06:20 16.9 °C 14.7 °C 1017.2 hPa Calm     87% 0 mm CLR
06:40 16.9 °C 14.7 °C 1017.8 hPa Calm     87% 0 mm CLR
06:50 16.9 °C 14.7 °C 1017.8 hPa Calm     87% 0 mm CLR
07:00 16.9 °C 14.7 °C 1018.2 hPa Calm     87% 0 mm CLR
07:10 16.9 °C 14.7 °C 1018.2 hPa Calm     87% 0 mm CLR
07:20 16.9 °C 14.7 °C 1018.2 hPa Calm     87% 0 mm CLR
07:30 16.9 °C 14.7 °C 1018.5 hPa Calm     87% 0 mm CLR
07:40 16.9 °C 14.7 °C 1018.5 hPa Calm     87% 0 mm CLR
07:50 18 °C 16.5 °C 1018.5 hPa Calm     91% 0 mm CLR
08:00 18.6 °C 16.9 °C 1018.5 hPa Calm     90% 0 mm CLR
08:10 19.4 °C 17.4 °C 1018.5 hPa Calm     88% 0 mm CLR
08:20 20.2 °C 17.7 °C 1018.8 hPa Calm     86% 0 mm CLR
08:30 20.6 °C 18 °C 1018.8 hPa Calm     85% 0 mm CLR
08:40 20.8 °C 18 °C 1018.8 hPa Calm     84% 0 mm CLR
08:50 20.9 °C 17.9 °C 1019.2 hPa Calm     83% 0 mm CLR
09:00 21.1 °C 18.3 °C 1019.2 hPa Calm     84% 0 mm CLR
09:10 21.5 °C 17.9 °C 1019.2 hPa Calm     80% 0 mm CLR
09:20 22.1 °C 17.9 °C 1019.2 hPa Calm     77% 0 mm CLR
09:30 22.7 °C 18 °C 1019.2 hPa Calm     75% 0 mm CLR
09:40 23.2 °C 18.3 °C 1019.2 hPa Calm     74% 0 mm CLR
09:50 23.7 °C 17.9 °C 1019.5 hPa Calm     70% 0 mm CLR
10:00 24.1 °C 18.1 °C 1019.5 hPa Calm   1.6 km/h 69% 0 mm CLR
10:10 24.9 °C 18.2 °C 1019.5 hPa Calm   1.6 km/h 66% 0 mm CLR
10:20 25.9 °C 17.8 °C 1019.5 hPa Calm   3.2 km/h 61% 0 mm CLR
10:30 26.6 °C 17.7 °C 1019.5 hPa Calm   3.2 km/h 58% 0 mm CLR
10:40 26.9 °C 17.9 °C 1019.5 hPa Calm   1.6 km/h 58% 0 mm CLR
10:50 27.2 °C 17.3 °C 1019.5 hPa Calm   1.6 km/h 55% 0 mm CLR
11:00 27.3 °C 16.6 °C 1019.5 hPa Calm   1.6 km/h 52% 0 mm CLR
11:10 27.5 °C 16.4 °C 1019.5 hPa Calm   1.6 km/h 51% 0 mm CLR
11:20 27.7 °C 16.7 °C 1019.5 hPa Calm   1.6 km/h 51% 0 mm CLR
11:30 27.7 °C 16.7 °C 1019.5 hPa Calm   1.6 km/h 51% 0 mm CLR
11:40 27.6 °C 15.9 °C 1019.5 hPa Calm   3.2 km/h 49% 0 mm CLR
11:50 27.7 °C 17 °C 1019.5 hPa Calm   3.2 km/h 52% 0 mm CLR
12:00 27.8 °C 15.5 °C 1019.5 hPa WNW 1.6 km/h 3.2 km/h 47% 0 mm CLR
12:10 27.7 °C 16.1 °C 1019.5 hPa Calm   1.6 km/h 49% 0 mm CLR
12:20 27.6 °C 15.6 °C 1019.5 hPa Calm   1.6 km/h 48% 0 mm CLR
12:30 27.4 °C 16.4 °C 1019.5 hPa Calm   1.6 km/h 51% 0 mm CLR
12:40 27.5 °C 17.4 °C 1019.5 hPa Calm     54% 0 mm CLR
12:50 28.6 °C 16.2 °C 1019.5 hPa Calm   1.6 km/h 47% 0 mm CLR
13:00 28.8 °C 16.7 °C 1019.5 hPa Calm     48% 0 mm CLR
13:10 29.3 °C 13.9 °C 1019.5 hPa WNW 1.6 km/h 1.6 km/h 39% 0 mm CLR
13:20 29.8 °C 15.9 °C 1019.5 hPa Calm   1.6 km/h 43% 0 mm CLR
13:30 30 °C 15.7 °C 1019.5 hPa Calm     42% 0 mm CLR
13:40 29.2 °C 16.4 °C 1019.2 hPa Calm   1.6 km/h 46% 0 mm CLR
13:50 29.4 °C 14.8 °C 1019.2 hPa Calm   1.6 km/h 41% 0 mm CLR
14:00 29.1 °C 15.2 °C 1019.2 hPa Calm   1.6 km/h 43% 0 mm CLR
14:20 28.3 °C 15.9 °C 1018.8 hPa Calm   3.2 km/h 47% 0 mm CLR
14:30 28.5 °C 16.1 °C 1018.8 hPa West 1.6 km/h 3.2 km/h 47% 0 mm CLR
14:40 28.7 °C 16.2 °C 1018.8 hPa Calm   3.2 km/h 47% 0 mm CLR
14:50 28.7 °C 16.6 °C 1018.8 hPa Calm   1.6 km/h 48% 0 mm CLR
15:00 28.2 °C 15.5 °C 1018.8 hPa Calm     46% 0 mm CLR
15:10 28.3 °C 14.2 °C 1018.5 hPa Calm     42% 0 mm CLR
15:20 28.3 °C 15.9 °C 1018.5 hPa Calm   1.6 km/h 47% 0 mm CLR
15:30 28.6 °C 16.5 °C 1018.5 hPa Calm   3.2 km/h 48% 0 mm CLR
15:40 29.1 °C 15.6 °C 1018.5 hPa Calm   1.6 km/h 44% 0 mm CLR
15:50 28.9 °C 15.1 °C 1018.2 hPa Calm   1.6 km/h 43% 0 mm CLR
16:00 29 °C 15.9 °C 1018.2 hPa Calm   1.6 km/h 45% 0 mm CLR
16:10 29.2 °C 16.1 °C 1018.5 hPa Calm   1.6 km/h 45% 0 mm CLR
16:20 29.2 °C 16.1 °C 1018.2 hPa Calm   3.2 km/h 45% 0 mm CLR
16:30 29.4 °C 16.3 °C 1018.2 hPa Calm   1.6 km/h 45% 0 mm CLR
16:40 29.4 °C 16.6 °C 1018.2 hPa Calm   3.2 km/h 46% 0 mm CLR
16:50 29.4 °C 16.2 °C 1018.2 hPa Calm     45% 0 mm CLR
17:00 29.3 °C 15.8 °C 1017.8 hPa Calm     44% 0 mm CLR
17:10 29.6 °C 15.7 °C 1017.8 hPa NNW 1.6 km/h 3.2 km/h 43% 0 mm CLR
17:20 29.5 °C 16.3 °C 1017.8 hPa Calm   1.6 km/h 45% 0 mm CLR
17:30 28.6 °C 16.2 °C 1017.8 hPa Calm   1.6 km/h 47% 0 mm CLR
17:40 28.1 °C 16 °C 1017.8 hPa Calm   1.6 km/h 48% 0 mm CLR
17:50 27.8 °C 16.4 °C 1017.8 hPa Calm   1.6 km/h 50% 0 mm CLR
18:00 27.6 °C 16.2 °C 1017.8 hPa Calm   1.6 km/h 50% 0 mm CLR
18:10 27.4 °C 16.7 °C 1017.8 hPa Calm     52% 0 mm CLR
18:20 27.7 °C 16.3 °C 1017.5 hPa Calm   1.6 km/h 50% 0 mm CLR
18:30 27.7 °C 16.7 °C 1017.8 hPa Calm     51% 0 mm CLR
18:50 27.6 °C 16.2 °C 1017.8 hPa Calm   1.6 km/h 50% 0 mm CLR
19:00 27.4 °C 16.1 °C 1017.8 hPa Calm   1.6 km/h 50% 0 mm CLR
19:10 27.2 °C 16.4 °C 1017.8 hPa Calm     52% 0 mm CLR
19:20 26.9 °C 16.8 °C 1017.8 hPa Calm     54% 0 mm CLR
19:30 26.6 °C 17.1 °C 1017.8 hPa Calm     56% 0 mm CLR
19:40 26.2 °C 16.7 °C 1017.8 hPa Calm     56% 0 mm CLR
19:50 25.8 °C 16.7 °C 1017.8 hPa Calm     57% 0 mm CLR
20:00 25.5 °C 17.2 °C 1017.8 hPa Calm     60% 0 mm CLR
20:10 25.2 °C 16.6 °C 1018.2 hPa Calm     59% 0 mm CLR
20:20 24.9 °C 16.6 °C 1018.2 hPa Calm     60% 0 mm CLR
20:30 24.7 °C 16.4 °C 1018.2 hPa Calm     60% 0 mm CLR
20:40 24.6 °C 16.6 °C 1018.5 hPa Calm     61% 0 mm CLR
20:50 24.4 °C 16.4 °C 1018.5 hPa Calm     61% 0 mm CLR
21:00 24.2 °C 16.2 °C 1018.8 hPa Calm     61% 0 mm CLR
21:10 23.9 °C 16.5 °C 1018.8 hPa Calm     63% 0 mm CLR
21:20 23.8 °C 16.3 °C 1018.8 hPa Calm     63% 0 mm CLR
21:30 23.6 °C 16.2 °C 1018.8 hPa Calm     63% 0 mm CLR
21:40 23.5 °C 16.1 °C 1019.2 hPa Calm     63% 0 mm CLR
21:50 23.3 °C 16.2 °C 1019.2 hPa Calm     64% 0 mm CLR
22:00 23.3 °C 16.3 °C 1019.5 hPa Calm     65% 0 mm CLR
22:10 23.1 °C 16.7 °C 1019.5 hPa Calm     67% 0 mm CLR
22:20 22.9 °C 16.2 °C 1019.5 hPa Calm     66% 0 mm CLR
22:30 22.7 °C 16 °C 1019.9 hPa Calm     66% 0 mm CLR
22:40 22.5 °C 16.3 °C 1020.2 hPa Calm     68% 0 mm CLR
22:50 22.3 °C 16.6 °C 1020.2 hPa Calm     70% 0 mm CLR
23:00 22.1 °C 16.6 °C 1020.2 hPa Calm     71% 0 mm CLR
23:10 21.8 °C 16.5 °C 1020.5 hPa Calm     72% 0 mm CLR
23:20 21.6 °C 16.7 °C 1020.5 hPa Calm     74% 0 mm CLR
23:30 21.4 °C 16.6 °C 1020.5 hPa Calm     74% 0 mm CLR
23:40 21.3 °C 16.4 °C 1020.5 hPa Calm     74% 0 mm CLR
23:50 21.1 °C 16.5 °C 1020.5 hPa Calm     75% 0 mm CLR
Piedmont Bend
Compliments of Weather Underground - 4 mb